Portada
METAR-TAF:

METAR-TAF

Aeroports :

Bristol, Anglaterra

latitud: 51-23N, longitud: 002-43W, altitud: 189 m

Observació

L'informe es va fer fa 22 minuts, a les 15:20 UTC
Vent 6 kt del Oest/Sud-Oest, variant entre Sud i Nord-Oest
Temperatura 22°C
Humitat 38%
Pressió 1034 hPa
Visibilitat 10 km o més

METAR: EGGD 251520Z AUTO 24006KT 180V320 9999 NCD 22/07 Q1034

Hora: 16:42 (15:42 UTC)

Pronòstic

L'informe es va fer fa 1 hora i 41 minuts, a les 14:01 UTC
Pronòstic vàlid del 25 a les 14 UTC al 26 a les 12 UTC
Vent 8 kt del Oest
Visibilitat 10 km o més
sense núvols per sota de 1500 mi sense presència de cumulonimbus.
Evolucionant progressivament
l' 26 a les 03 UTC al 26 a les 06 UTC
Cel ennuvolat a una alçada de 4500 ft

TAF: EGGD 251401Z 2514/2612 27008KT CAVOK BECMG 2603/2606 BKN045

Observacions i pronòstics meteorològics de més de 4000 aeroports (METAR i TAF).

Les estacions disponibles són els punts grocs i vermells al mapa.

Posi el ratolí al punt desitjat per veure el nom de l'estació.

Feu clic per veure les observacions i els pronòstics meteorològics.

Per canviar el mapa: feu clic els botons verds amb una creu de color negre per apropar; al botó verd amb un guió per allunyar la imatge; o en les fletxes verdes per a mapes adjacents.


METAR-TAF: